Paterson, NJ (07544)

5:07 PM EDT on September 04, 2015 (GMT -0400)
Memorial Middle School, Fair Lawn, NJ | | Change Station
CLOSE
Current Station
Personal Weather Station
Location: Fair Lawn, NJ
Elevation: 37 ft
Nearby Weather Stations

Elev 37 ft 40.93 °N, 74.14 °W | Updated 5 seconds ago

Mostly Cloudy
Mostly Cloudy
82.8 °F
Feels Like 86 °F
N
3.0
Wind Variable Wind from ENE
Gusts 8.0 mph

Today
High -- | Low -- °F
--% Chance of Precip.
Yesterday
High -- | Low -- °F
Precip. -- in
6:26 AM 7:24 PM
Waning Gibbous, 56% visible
Pressure 30.13 in
Visibility 10.0 miles
Clouds Scattered Clouds 4400 ft
Mostly Cloudy 6000 ft
Heat Index 86 °F
Dew Point 68 °F
Humidity 61%
Rainfall 0.00 in
Snow Depth Not available.
UV 1 out of 12
Pollen 9.00 out of 12
Air Quality Not available.
Flu Activity Not available.
METAR KCDW 042053Z AUTO 08011KT 10SM SCT044 BKN060 27/17 A3011 RMK AO2 SLP201 T02720172 53001 TSNO
Pressure 30.13 in
Visibility 10.0 miles
Clouds Scattered Clouds 4400 ft
Mostly Cloudy 6000 ft
Heat Index 86 °F
Dew Point 68 °F
Humidity 61%
Rainfall 0.00 in
Snow Depth Not available.
UV 1 out of 12
Pollen 9.00 out of 12
Air Quality Not available.
Flu Activity Not available.
METAR KCDW 042053Z AUTO 08011KT 10SM SCT044 BKN060 27/17 A3011 RMK AO2 SLP201 T02720172 53001 TSNO

10-Day Weather Forecast

×

Almanac

Astronomy

Sep. 04, 2015 Rise Set
Actual Time
Civil Twilight
Nautical Twilight
Astronomical Twilight
Moon
Length of Visible Light
Length of Day
Tomorrow will be .
, % of the Moon is Illuminated

Today's Extremes

State Highs State Lows

Community

WunderPhotos

Upload Photos

1,852,290 photos uploaded!

WunderBlogs® & News

Nearby

Air Quality

  Air Quality AQ Index Pollutant
Not available.

Snow Depth

Station Depth Elevation

Earthquake Activity

City Distance Mag. Time & Date
Minimum magnitude displayed is 2.5.

Coastal Water Temperatures

Place Temperature

Stations

Nearby Weather Stations

Station Location Temp. Windchill Dew Point Humidity Wind Precip. Elev Updated Type